Time;durP1;ratioP1;P1;durP2;ratioP2;P2;SDS_P1;SDS_P2;PMS_P1;PMS_P2;Temp;Humidity;BMP_temperature;BMP_pressure;BME280_temperature;BME280_humidity;BME280_pressure;Samples;Min_cycle;Max_cycle;Signal;HPM_P1;HPM_P2
2022/02/14 00:00:40;;;;;;;98.30;46.25;;;;;;;-0.51;100.00;147546.37;1744670;82;21011;-61
2022/02/14 00:03:07;;;;;;;116.97;58.60;;;;;;;-0.50;100.00;147548.94;1714917;83;21145;-65
2022/02/14 00:05:35;;;;;;;98.50;48.08;;;;;;;-0.51;100.00;147547.62;1718661;82;21110;-66
2022/02/14 00:08:02;;;;;;;111.62;56.75;;;;;;;-0.53;100.00;147542.48;1748172;81;21140;-66
2022/02/14 00:10:30;;;;;;;105.17;48.28;;;;;;;-0.54;100.00;147538.66;1744659;81;21466;-61
2022/02/14 00:12:57;;;;;;;66.15;33.78;;;;;;;-0.56;100.00;147533.47;1745484;80;20897;-67
2022/02/14 00:15:26;;;;;;;80.95;36.55;;;;;;;-0.63;100.00;147518.05;1744689;82;21090;-66
2022/02/14 00:17:53;;;;;;;62.55;30.57;;;;;;;-0.63;100.00;147518.05;1752309;81;21050;-61
2022/02/14 00:20:21;;;;;;;79.72;40.12;;;;;;;-0.61;100.00;147523.19;1753425;81;21043;-66
2022/02/14 00:22:49;;;;;;;173.90;107.72;;;;;;;-0.59;100.00;147527.06;1703336;83;21111;-66
2022/02/14 00:25:19;;;;;;;66.53;30.65;;;;;;;-0.58;100.00;147529.64;1715238;83;21498;-66
2022/02/14 00:27:47;;;;;;;71.55;29.32;;;;;;;-0.54;100.00;147538.66;1710674;83;21482;-66
2022/02/14 00:30:14;;;;;;;64.80;27.22;;;;;;;-0.54;100.00;147538.66;1671096;84;21095;-61
2022/02/14 00:32:41;;;;;;;52.85;21.77;;;;;;;-0.56;100.00;147533.47;1675830;85;21529;-61
2022/02/14 00:35:10;;;;;;;53.25;22.25;;;;;;;-0.59;100.00;147528.33;1710596;83;20947;-66
2022/02/14 00:37:37;;;;;;;53.17;22.65;;;;;;;-0.59;100.00;147528.33;1685502;84;21088;-66
2022/02/14 00:40:06;;;;;;;63.05;24.23;;;;;;;-0.58;100.00;147530.91;1685703;84;21537;-66
2022/02/14 00:42:33;;;;;;;48.73;21.07;;;;;;;-0.57;100.00;147532.20;1714855;83;21095;-63
2022/02/14 00:45:00;;;;;;;50.90;22.27;;;;;;;-0.58;100.00;147530.91;1711095;83;21797;-61
2022/02/14 00:47:27;;;;;;;60.63;23.42;;;;;;;-0.56;100.00;147533.47;1710442;83;21111;-62
2022/02/14 00:49:54;;;;;;;55.98;20.97;;;;;;;-0.58;100.00;147530.91;1686001;85;21060;-61
2022/02/14 00:52:21;;;;;;;51.58;22.48;;;;;;;-0.61;100.00;147521.92;1704012;83;21099;-61
2022/02/14 00:54:48;;;;;;;53.38;22.17;;;;;;;-0.62;100.00;147520.61;1756971;81;21698;-62
2022/02/14 00:57:14;;;;;;;63.50;26.15;;;;;;;-0.59;100.00;147527.06;1753794;81;21234;-62
2022/02/14 00:59:42;;;;;;;60.03;25.25;;;;;;;-0.59;100.00;147528.33;1754013;81;21558;-61
2022/02/14 01:02:09;;;;;;;63.85;25.97;;;;;;;-0.61;100.00;147523.19;1753781;81;21043;-62
2022/02/14 01:04:36;;;;;;;65.40;26.27;;;;;;;-0.66;100.00;147510.34;1753372;81;21055;-60
2022/02/14 01:07:03;;;;;;;64.65;24.67;;;;;;;-0.71;100.00;147497.48;1753963;81;21040;-60
2022/02/14 01:09:30;;;;;;;62.58;27.15;;;;;;;-0.76;100.00;147484.63;1749723;81;21149;-61
2022/02/14 01:11:57;;;;;;;51.15;21.85;;;;;;;-0.76;100.00;147485.89;1753178;81;20988;-65
2022/02/14 01:14:23;;;;;;;69.92;27.17;;;;;;;-0.78;100.00;147479.44;1753112;81;21024;-66
2022/02/14 01:16:50;;;;;;;58.33;24.27;;;;;;;-0.78;100.00;147479.44;1714246;82;21037;-61
2022/02/14 01:19:17;;;;;;;63.83;27.45;;;;;;;-0.78;100.00;147479.44;1696094;84;21053;-61
2022/02/14 01:21:44;;;;;;;63.17;26.93;;;;;;;-0.78;100.00;147479.44;1743863;82;21458;-61
2022/02/14 01:24:11;;;;;;;80.83;29.45;;;;;;;-0.78;100.00;147479.44;1742934;82;21078;-62
2022/02/14 01:26:42;;;;;;;72.42;28.23;;;;;;;-0.80;100.00;147475.61;1743090;82;20964;-61
2022/02/14 01:29:09;;;;;;;76.57;29.45;;;;;;;-0.81;100.00;147471.73;1743397;82;21561;-61
2022/02/14 01:31:36;;;;;;;56.68;22.50;;;;;;;-0.84;100.00;147464.03;1743289;82;21024;-61
2022/02/14 01:34:03;;;;;;;49.08;21.93;;;;;;;-0.87;100.00;147457.63;1742789;82;21039;-61
2022/02/14 01:36:30;;;;;;;58.60;24.87;;;;;;;-0.89;100.00;147453.75;1742914;81;20952;-62
2022/02/14 01:38:57;;;;;;;53.55;20.10;;;;;;;-0.87;100.00;147458.88;1742648;82;21028;-61
2022/02/14 01:41:23;;;;;;;67.17;25.82;;;;;;;-0.84;100.00;147464.03;1742297;82;20956;-62
2022/02/14 01:43:50;;;;;;;65.15;28.50;;;;;;;-0.84;100.00;147464.03;1742645;82;21123;-61
2022/02/14 01:46:19;;;;;;;64.85;28.20;;;;;;;-0.83;100.00;147466.59;1741688;81;21026;-61
2022/02/14 01:48:45;;;;;;;66.47;26.25;;;;;;;-0.89;100.00;147453.75;1742239;81;21528;-60
2022/02/14 01:51:12;;;;;;;52.73;24.18;;;;;;;-0.96;100.00;147435.75;1744141;81;21993;-61
2022/02/14 01:53:39;;;;;;;54.05;22.67;;;;;;;-0.99;100.00;147428.05;1718018;82;21083;-60
2022/02/14 01:56:07;;;;;;;62.45;24.80;;;;;;;-0.98;100.00;147430.63;1748412;82;21053;-62
2022/02/14 01:58:34;;;;;;;63.20;25.48;;;;;;;-0.97;100.00;147431.87;1742817;82;21115;-61
2022/02/14 02:01:00;;;;;;;63.48;25.40;;;;;;;-0.97;100.00;147433.19;1742628;82;21035;-61
2022/02/14 02:03:28;;;;;;;49.90;22.00;;;;;;;-1.01;100.00;147422.86;1742459;82;21072;-61
2022/02/14 02:05:55;;;;;;;71.10;27.27;;;;;;;-1.03;100.00;147417.72;1742454;82;21546;-61
2022/02/14 02:08:22;;;;;;;52.50;24.82;;;;;;;-1.04;100.00;147415.16;1742754;82;21540;-61
2022/02/14 02:10:49;;;;;;;59.98;25.17;;;;;;;-1.04;100.00;147415.16;1736646;82;21866;-66
2022/02/14 02:13:17;;;;;;;60.48;24.50;;;;;;;-1.06;100.00;147410.02;1713638;82;21893;-66
2022/02/14 02:15:43;;;;;;;76.62;24.45;;;;;;;-1.10;100.00;147399.73;1724978;82;21253;-66
2022/02/14 02:18:10;;;;;;;63.45;24.02;;;;;;;-1.12;100.00;147394.59;1742898;82;21103;-65
2022/02/14 02:20:37;;;;;;;56.40;23.57;;;;;;;-1.13;100.00;147393.28;1744971;82;21565;-66
2022/02/14 02:23:05;;;;;;;59.53;22.82;;;;;;;-1.14;100.00;147389.45;1743079;82;22028;-61
2022/02/14 02:25:32;;;;;;;76.33;26.35;;;;;;;-1.15;100.00;147388.16;1743122;82;21024;-66
2022/02/14 02:27:59;;;;;;;69.15;21.70;;;;;;;-1.16;100.00;147386.89;1743134;82;20980;-66
2022/02/14 02:30:26;;;;;;;53.73;19.95;;;;;;;-1.16;100.00;147385.58;1742864;82;22064;-66
2022/02/14 02:32:52;;;;;;;61.42;23.25;;;;;;;-1.18;100.00;147381.75;1742810;82;21071;-61
2022/02/14 02:35:19;;;;;;;50.92;22.35;;;;;;;-1.17;100.00;147384.31;1744783;82;21144;-60
2022/02/14 02:37:46;;;;;;;52.67;22.07;;;;;;;-1.17;100.00;147384.31;1746226;82;21562;-62
2022/02/14 02:40:16;;;;;;;57.33;21.45;;;;;;;-1.14;100.00;147389.45;1742232;82;22182;-61
2022/02/14 02:42:45;;;;;;;58.60;21.25;;;;;;;-1.16;100.00;147386.89;1742660;82;21521;-67
2022/02/14 02:45:13;;;;;;;55.20;19.90;;;;;;;-1.14;100.00;147389.45;1728842;82;20992;-63
2022/02/14 02:47:40;;;;;;;51.95;21.35;;;;;;;-1.13;100.00;147392.03;1742075;82;21042;-61
2022/02/14 02:50:09;;;;;;;65.60;24.77;;;;;;;-1.11;100.00;147397.17;1744371;82;20932;-61
2022/02/14 02:52:35;;;;;;;63.33;21.70;;;;;;;-1.13;100.00;147393.28;1741620;81;21087;-66
2022/02/14 02:55:03;;;;;;;67.10;24.60;;;;;;;-1.15;100.00;147388.16;1742897;82;21037;-66
2022/02/14 02:57:30;;;;;;;60.52;22.77;;;;;;;-1.16;100.00;147386.89;1742761;82;21095;-66
2022/02/14 02:59:57;;;;;;;56.23;23.12;;;;;;;-1.22;100.00;147371.42;1742895;82;21810;-62
2022/02/14 03:02:24;;;;;;;49.77;18.73;;;;;;;-1.27;100.00;147357.31;1742659;82;21001;-63
2022/02/14 03:04:51;;;;;;;40.48;16.85;;;;;;;-1.31;100.00;147349.61;1731875;82;21052;-62
2022/02/14 03:07:18;;;;;;;40.45;16.55;;;;;;;-1.32;100.00;147345.73;1716391;82;21095;-61
2022/02/14 03:09:45;;;;;;;53.48;18.70;;;;;;;-1.31;100.00;147349.61;1742005;82;21079;-61
2022/02/14 03:12:11;;;;;;;43.98;17.55;;;;;;;-1.27;100.00;147358.58;1743234;82;21108;-61
2022/02/14 03:14:39;;;;;;;50.00;18.45;;;;;;;-1.24;100.00;147365.03;1742216;81;21525;-61
2022/02/14 03:17:10;;;;;;;43.33;16.12;;;;;;;-1.24;100.00;147366.28;1743301;82;20913;-61
2022/02/14 03:19:37;;;;;;;66.12;21.90;;;;;;;-1.24;99.98;147366.28;1745346;80;21042;-61
2022/02/14 03:22:04;;;;;;;35.10;14.95;;;;;;;-1.24;99.76;147366.28;1748971;82;21020;-61
2022/02/14 03:24:31;;;;;;;37.42;15.95;;;;;;;-1.24;99.34;147366.28;1743869;82;21126;-60
2022/02/14 03:26:58;;;;;;;43.87;19.12;;;;;;;-1.23;99.04;147368.86;1743067;82;20989;-61
2022/02/14 03:29:26;;;;;;;48.10;16.77;;;;;;;-1.20;98.91;147376.61;1743175;81;21036;-61
2022/02/14 03:31:53;;;;;;;33.88;15.00;;;;;;;-1.17;98.84;147383.02;1743060;82;21647;-61
2022/02/14 03:34:19;;;;;;;41.63;16.97;;;;;;;-1.12;99.04;147395.86;1742126;81;21488;-61
2022/02/14 03:36:46;;;;;;;42.20;15.65;;;;;;;-1.08;99.41;147404.88;1741614;82;21132;-61
2022/02/14 03:39:12;;;;;;;49.45;16.90;;;;;;;-1.10;99.68;147399.73;1740734;82;20981;-61
2022/02/14 03:41:39;;;;;;;51.48;17.67;;;;;;;-1.12;99.70;147395.86;1742319;82;20995;-61
2022/02/14 03:44:06;;;;;;;42.35;15.50;;;;;;;-1.13;99.49;147392.03;1742659;82;20953;-61
2022/02/14 03:46:33;;;;;;;52.30;16.70;;;;;;;-1.19;98.96;147379.19;1742819;82;21024;-61
2022/02/14 03:49:00;;;;;;;41.48;15.20;;;;;;;-1.17;97.95;147383.02;1744895;82;21070;-62
2022/02/14 03:51:27;;;;;;;36.30;13.93;;;;;;;-1.12;97.48;147394.59;1741866;82;21036;-61
2022/02/14 03:53:54;;;;;;;44.33;15.63;;;;;;;-1.09;96.42;147402.31;1742601;81;21044;-61
2022/02/14 03:56:23;;;;;;;43.15;13.32;;;;;;;-1.03;95.80;147417.72;1741591;81;21541;-61
2022/02/14 03:58:50;;;;;;;37.15;13.70;;;;;;;-1.01;94.25;147422.86;1742604;82;21052;-61
2022/02/14 04:01:17;;;;;;;33.38;12.78;;;;;;;-0.98;93.32;147430.63;1741924;82;21160;-61
2022/02/14 04:03:43;;;;;;;31.00;12.20;;;;;;;-0.97;92.58;147431.87;1742384;81;21072;-61
2022/02/14 04:06:10;;;;;;;34.15;12.00;;;;;;;-0.96;91.69;147435.75;1742396;81;21036;-63
2022/02/14 04:08:37;;;;;;;26.23;9.60;;;;;;;-0.90;90.67;147451.17;1721517;82;21004;-61
2022/02/14 04:11:04;;;;;;;18.92;8.70;;;;;;;-0.87;89.11;147458.88;1759751;80;20993;-61
2022/02/14 04:13:30;;;;;;;30.37;8.63;;;;;;;-0.82;87.26;147469.16;1741164;82;21345;-61
2022/02/14 04:15:57;;;;;;;36.90;12.58;;;;;;;-0.76;86.89;147484.63;1741441;82;21041;-62
2022/02/14 04:18:23;;;;;;;31.00;11.78;;;;;;;-0.73;86.44;147493.59;1741777;82;21505;-61
2022/02/14 04:20:51;;;;;;;32.28;11.73;;;;;;;-0.70;85.89;147500.06;1742567;82;21034;-60
2022/02/14 04:23:18;;;;;;;27.30;8.08;;;;;;;-0.68;85.34;147505.19;1742662;82;21106;-60
2022/02/14 04:25:44;;;;;;;35.52;11.18;;;;;;;-0.68;84.10;147505.19;1741712;82;21917;-62
2022/02/14 04:28:11;;;;;;;31.65;11.45;;;;;;;-0.65;83.63;147511.64;1745027;82;21019;-60
2022/02/14 04:30:39;;;;;;;39.18;12.53;;;;;;;-0.64;83.11;147515.47;1747374;82;21075;-61
2022/02/14 04:33:06;;;;;;;26.20;11.63;;;;;;;-0.64;82.86;147515.47;1747621;82;20996;-62
2022/02/14 04:35:33;;;;;;;38.80;13.68;;;;;;;-0.67;82.62;147507.77;1741213;82;21659;-62
2022/02/14 04:38:00;;;;;;;34.90;9.90;;;;;;;-0.67;82.37;147507.77;1741702;82;22001;-62
2022/02/14 04:40:33;;;;;;;36.80;10.28;;;;;;;-0.68;82.09;147505.19;1741700;82;21048;-62
2022/02/14 04:43:00;;;;;;;35.17;11.97;;;;;;;-0.66;81.78;147509.08;1743822;82;21494;-62
2022/02/14 04:45:27;;;;;;;30.17;11.65;;;;;;;-0.64;81.50;147515.47;1742547;81;21107;-61
2022/02/14 04:47:54;;;;;;;44.23;12.98;;;;;;;-0.64;81.01;147515.47;1742454;80;21071;-61
2022/02/14 04:50:20;;;;;;;37.20;12.47;;;;;;;-0.66;81.05;147509.08;1741954;82;21624;-61
2022/02/14 04:52:48;;;;;;;32.67;11.35;;;;;;;-0.69;80.98;147502.63;1741583;82;21414;-61
2022/02/14 04:55:14;;;;;;;29.60;11.35;;;;;;;-0.69;80.85;147502.63;1742020;82;20963;-61
2022/02/14 04:57:41;;;;;;;34.00;13.28;;;;;;;-0.72;80.78;147494.91;1744878;82;21138;-62
2022/02/14 05:00:10;;;;;;;38.42;13.43;;;;;;;-0.73;80.90;147493.59;1742589;81;21383;-61
2022/02/14 05:02:38;;;;;;;33.23;11.50;;;;;;;-0.74;81.08;147489.77;1742597;82;21085;-61
2022/02/14 05:05:06;;;;;;;29.98;12.73;;;;;;;-0.76;81.13;147484.63;1742854;80;20941;-61
2022/02/14 05:07:33;;;;;;;35.70;12.13;;;;;;;-0.78;81.25;147479.44;1742467;82;21075;-62
2022/02/14 05:10:00;;;;;;;30.23;9.83;;;;;;;-0.76;81.44;147484.63;1736177;81;21035;-61
2022/02/14 05:12:27;;;;;;;42.85;12.60;;;;;;;-0.69;81.43;147502.63;1742037;82;21048;-61
2022/02/14 05:14:54;;;;;;;25.45;8.93;;;;;;;-0.62;81.30;147520.61;1742107;81;21133;-61
2022/02/14 05:17:20;;;;;;;23.30;9.33;;;;;;;-0.47;81.34;147557.91;1742187;82;21437;-62
2022/02/14 05:19:50;;;;;;;28.42;10.75;;;;;;;-0.17;81.18;147631.25;1752094;81;21500;-60
2022/02/14 05:22:17;;;;;;;38.45;10.88;;;;;;;0.28;81.00;147744.52;1753437;81;21127;-61
2022/02/14 05:24:44;;;;;;;27.95;10.72;;;;;;;1.00;80.67;147923.52;1715347;82;21034;-66
2022/02/14 05:27:12;;;;;;;35.10;12.28;;;;;;;1.70;79.05;148097.47;1710353;83;21143;-60
2022/02/14 05:29:39;;;;;;;23.40;8.00;;;;;;;2.08;76.68;148190.25;1709095;83;21115;-67
2022/02/14 05:32:07;;;;;;;44.50;13.03;;;;;;;2.08;74.05;148190.25;1709780;83;21065;-61
2022/02/14 05:34:34;;;;;;;48.83;11.40;;;;;;;1.94;72.96;148155.44;1685839;84;22156;-61
2022/02/14 05:37:01;;;;;;;34.55;11.12;;;;;;;1.74;72.64;148106.45;1708674;83;21088;-66
2022/02/14 05:39:28;;;;;;;22.35;8.05;;;;;;;1.59;72.84;148069.09;1683454;84;21144;-66
2022/02/14 05:41:54;;;;;;;29.45;10.43;;;;;;;1.48;73.16;148042.03;1702602;83;21093;-67
2022/02/14 05:44:20;;;;;;;34.65;10.35;;;;;;;1.41;73.68;148025.27;1709959;83;21124;-66
2022/02/14 05:46:47;;;;;;;25.15;7.85;;;;;;;1.37;73.27;148014.97;1715458;83;21028;-66
2022/02/14 05:49:14;;;;;;;21.50;7.87;;;;;;;1.34;72.92;148007.25;1709789;83;21387;-66
2022/02/14 05:51:40;;;;;;;14.75;4.72;;;;;;;1.32;72.60;148002.09;1709790;83;21661;-66
2022/02/14 05:54:07;;;;;;;13.60;3.67;;;;;;;1.31;71.86;147999.53;1710113;83;21009;-66
2022/02/14 05:56:34;;;;;;;10.18;3.52;;;;;;;1.37;71.06;148013.72;1717893;82;21083;-68
2022/02/14 05:59:01;;;;;;;6.20;2.95;;;;;;;1.47;70.92;148038.19;1754038;81;21015;-67
2022/02/14 06:01:28;;;;;;;7.20;2.77;;;;;;;1.55;70.20;148058.78;1754097;80;21055;-67
2022/02/14 06:03:54;;;;;;;10.88;3.05;;;;;;;1.62;70.55;148076.81;1754111;81;22017;-66
2022/02/14 06:06:21;;;;;;;6.30;2.70;;;;;;;1.69;70.67;148094.89;1735256;81;20935;-67
2022/02/14 06:08:48;;;;;;;8.70;2.72;;;;;;;1.74;69.74;148106.45;1753478;80;21094;-68
2022/02/14 06:11:17;;;;;;;5.72;2.83;;;;;;;1.79;68.74;148119.39;1710790;82;21007;-67
2022/02/14 06:13:44;;;;;;;5.30;2.83;;;;;;;1.82;67.79;148125.80;1709631;83;21065;-62
2022/02/14 06:16:11;;;;;;;7.37;3.02;;;;;;;1.85;67.92;148133.53;1696979;83;21435;-61
2022/02/14 06:18:38;;;;;;;5.95;2.90;;;;;;;1.86;67.86;148137.41;1701132;83;21027;-68
2022/02/14 06:21:04;;;;;;;6.30;2.95;;;;;;;1.87;67.00;148138.67;1643066;86;21020;-67
2022/02/14 06:23:31;;;;;;;7.33;3.00;;;;;;;1.88;67.29;148141.30;1709724;83;22173;-67
2022/02/14 06:26:01;;;;;;;8.48;3.00;;;;;;;1.89;67.92;148142.56;1709907;82;21083;-66
2022/02/14 06:28:27;;;;;;;11.75;4.28;;;;;;;1.90;68.47;148146.45;1710676;82;21064;-67
2022/02/14 06:30:54;;;;;;;8.38;3.58;;;;;;;1.91;69.09;148149.03;1712141;82;21053;-67
2022/02/14 06:33:22;;;;;;;7.30;3.50;;;;;;;1.95;69.71;148158.02;1712129;83;21067;-67
2022/02/14 06:35:48;;;;;;;11.20;3.42;;;;;;;1.99;70.09;148168.38;1712360;82;21502;-67
2022/02/14 06:38:15;;;;;;;8.30;3.10;;;;;;;2.04;70.49;148181.25;1710859;82;21060;-67
2022/02/14 06:40:44;;;;;;;8.40;3.17;;;;;;;2.08;70.39;148190.25;1708398;82;21033;-66
2022/02/14 06:43:12;;;;;;;7.87;2.90;;;;;;;2.10;70.43;148196.70;1703822;82;21088;-63
2022/02/14 06:45:38;;;;;;;10.53;3.65;;;;;;;2.15;70.37;148208.33;1710650;83;21531;-62
2022/02/14 06:48:05;;;;;;;7.87;2.70;;;;;;;2.15;70.33;148209.59;1707068;82;20964;-64
2022/02/14 06:50:32;;;;;;;6.85;2.55;;;;;;;2.16;70.73;148210.91;1705228;82;21094;-67
2022/02/14 06:52:59;;;;;;;5.83;2.30;;;;;;;2.21;70.96;148222.47;1709454;82;21461;-67
2022/02/14 06:55:26;;;;;;;9.75;2.60;;;;;;;2.26;71.26;148236.66;1704592;82;21345;-68
2022/02/14 06:57:53;;;;;;;6.30;2.37;;;;;;;2.33;71.34;148252.17;1707536;82;21110;-67
2022/02/14 07:00:19;;;;;;;11.75;3.45;;;;;;;2.39;71.09;148268.89;1694580;82;21359;-68
2022/02/14 07:03:08;;;;;;;11.15;2.60;;;;;;;2.44;70.76;148280.52;1710114;82;21497;-61
2022/02/14 07:05:25;;;;;;;9.08;2.72;;;;;;;2.49;70.65;148293.41;1699112;82;21636;-66
2022/02/14 07:07:52;;;;;;;9.95;2.70;;;;;;;2.54;70.70;148305.02;1676856;83;21110;-64
2022/02/14 07:10:20;;;;;;;17.07;2.58;;;;;;;2.59;70.70;148317.91;1705720;82;21406;-63
2022/02/14 07:12:49;;;;;;;5.60;3.10;;;;;;;2.65;70.62;148333.42;1698561;82;21080;-64
2022/02/14 07:15:16;;;;;;;7.05;2.77;;;;;;;2.70;70.47;148346.31;1697278;82;21599;-62
2022/02/14 07:17:46;;;;;;;6.47;3.10;;;;;;;2.73;70.70;148352.72;1693384;82;21588;-62
2022/02/14 07:20:12;;;;;;;8.15;3.35;;;;;;;2.75;70.97;148356.63;1724782;82;21070;-62
2022/02/14 07:22:40;;;;;;;6.47;3.22;;;;;;;2.82;71.19;148375.97;1727600;81;21836;-62
2022/02/14 07:25:09;;;;;;;6.67;3.02;;;;;;;2.84;71.08;148381.12;1727174;82;21113;-64
2022/02/14 07:27:36;;;;;;;6.25;3.22;;;;;;;2.85;70.59;148383.70;1732761;82;21020;-63
2022/02/14 07:30:07;;;;;;;6.78;3.12;;;;;;;2.82;70.33;148375.97;1727575;82;21514;-64
2022/02/14 07:32:33;;;;;;;6.85;3.10;;;;;;;2.79;70.45;148368.23;1727259;82;20995;-62
2022/02/14 07:35:03;;;;;;;7.45;3.00;;;;;;;2.78;70.43;148365.66;1733605;82;21134;-62
2022/02/14 07:37:30;;;;;;;11.75;4.30;;;;;;;2.81;70.58;148372.08;1731917;82;21067;-63
2022/02/14 07:39:56;;;;;;;10.93;3.65;;;;;;;2.81;70.57;148373.41;1732540;82;21723;-62
2022/02/14 07:42:24;;;;;;;9.10;3.90;;;;;;;2.86;70.78;148384.97;1731359;82;22121;-62
2022/02/14 07:44:51;;;;;;;12.88;4.17;;;;;;;2.87;71.01;148387.55;1733739;82;21051;-63
2022/02/14 07:47:17;;;;;;;7.85;4.15;;;;;;;2.86;71.51;148386.28;1727260;82;21548;-64
2022/02/14 07:49:45;;;;;;;9.53;3.52;;;;;;;2.85;71.14;148383.70;1727238;82;21093;-61
2022/02/14 07:52:13;;;;;;;9.93;3.58;;;;;;;2.84;71.14;148381.12;1729847;82;21016;-63
2022/02/14 07:54:41;;;;;;;7.58;3.33;;;;;;;2.88;71.40;148388.86;1732994;82;21143;-63
2022/02/14 07:57:08;;;;;;;7.80;3.83;;;;;;;2.91;71.77;148396.59;1731315;82;21294;-63
2022/02/14 07:59:34;;;;;;;7.33;3.42;;;;;;;2.96;71.72;148409.48;1728894;82;21043;-68
2022/02/14 08:02:01;;;;;;;8.55;4.00;;;;;;;2.98;71.59;148414.64;1724324;80;21063;-68
2022/02/14 08:04:29;;;;;;;8.78;4.17;;;;;;;2.98;71.85;148415.95;1732236;82;21202;-69
2022/02/14 08:06:56;;;;;;;6.67;3.67;;;;;;;3.01;72.09;148422.42;1725413;81;21803;-68
2022/02/14 08:09:23;;;;;;;8.25;4.15;;;;;;;3.02;71.69;148425.00;1729833;82;21104;-62
2022/02/14 08:11:52;;;;;;;11.80;3.67;;;;;;;2.98;71.58;148414.64;1729977;82;20980;-64
2022/02/14 08:14:20;;;;;;;8.70;3.70;;;;;;;2.95;71.95;148406.91;1725614;82;21039;-62
2022/02/14 08:16:48;;;;;;;8.45;4.08;;;;;;;2.95;72.12;148406.91;1730443;82;21158;-68
2022/02/14 08:19:15;;;;;;;9.68;3.60;;;;;;;2.98;72.11;148414.64;1727582;81;21139;-67
2022/02/14 08:21:43;;;;;;;6.35;3.37;;;;;;;2.99;71.58;148417.27;1743848;81;22351;-69
2022/02/14 08:24:09;;;;;;;9.45;3.62;;;;;;;2.95;71.14;148406.91;1745026;81;21132;-68
2022/02/14 08:26:38;;;;;;;11.63;3.55;;;;;;;2.91;71.10;148396.59;1743451;81;21099;-67
2022/02/14 08:29:05;;;;;;;11.25;3.47;;;;;;;2.89;71.32;148391.44;1741642;81;21085;-67
2022/02/14 08:31:32;;;;;;;9.50;3.20;;;;;;;2.89;71.82;148391.44;1743235;81;21138;-67
2022/02/14 08:33:59;;;;;;;6.37;3.60;;;;;;;2.91;71.87;148396.59;1736119;81;21736;-68
2022/02/14 08:36:32;;;;;;;6.27;3.07;;;;;;;2.94;71.33;148404.33;1742972;81;21087;-68
2022/02/14 08:39:01;;;;;;;7.50;3.40;;;;;;;2.96;71.68;148409.48;1742465;81;21063;-67
2022/02/14 08:41:27;;;;;;;6.20;3.25;;;;;;;2.96;71.68;148409.48;1743755;81;21042;-68
2022/02/14 08:43:54;;;;;;;11.78;3.80;;;;;;;2.98;71.96;148414.64;1742188;80;21160;-66
2022/02/14 08:46:21;;;;;;;7.80;3.20;;;;;;;2.98;71.75;148414.64;1744094;81;21062;-69
2022/02/14 08:48:52;;;;;;;8.50;3.70;;;;;;;2.98;71.89;148414.64;1745951;80;21039;-67
2022/02/14 08:51:19;;;;;;;9.20;3.65;;;;;;;2.97;71.60;148413.37;1747724;81;21514;-67
2022/02/14 08:56:42;;;;;;;7.03;3.60;;;;;;;2.96;71.59;148409.48;1743936;81;21859;-66
2022/02/14 08:59:09;;;;;;;9.45;3.58;;;;;;;2.98;71.32;148414.64;1745479;80;22267;-68
2022/02/14 09:01:35;;;;;;;8.43;3.33;;;;;;;2.96;71.19;148410.80;1742634;81;21063;-69
2022/02/14 09:04:02;;;;;;;8.78;3.60;;;;;;;2.97;71.19;148412.06;1746087;81;21047;-68
2022/02/14 09:06:30;;;;;;;8.68;3.40;;;;;;;2.95;71.03;148408.22;1750852;81;21192;-68
2022/02/14 09:08:56;;;;;;;6.45;3.05;;;;;;;2.96;71.03;148409.48;1747391;81;21174;-68
2022/02/14 09:11:23;;;;;;;6.90;3.30;;;;;;;3.00;71.00;148419.84;1746343;80;21058;-70
2022/02/14 09:13:50;;;;;;;7.05;3.02;;;;;;;3.01;70.33;148422.42;1745904;81;21016;-66
2022/02/14 09:16:20;;;;;;;7.10;3.40;;;;;;;2.98;70.28;148414.64;1709518;82;21175;-68
2022/02/14 09:18:47;;;;;;;8.30;3.40;;;;;;;2.95;70.32;148406.91;1739787;81;21491;-68
2022/02/14 09:21:14;;;;;;;11.20;3.70;;;;;;;2.93;70.60;148401.75;1744886;81;21679;-68
2022/02/14 09:23:41;;;;;;;9.73;3.58;;;;;;;2.95;70.52;148406.91;1745593;81;21631;-68
2022/02/14 09:26:08;;;;;;;8.20;3.30;;;;;;;2.99;70.53;148418.53;1743803;81;21059;-70
2022/02/14 09:28:36;;;;;;;9.35;3.50;;;;;;;3.03;70.12;148427.58;1745315;81;21090;-68
2022/02/14 09:31:03;;;;;;;7.05;3.40;;;;;;;3.03;69.74;148427.58;1746909;81;21121;-70
2022/02/14 09:33:30;;;;;;;8.88;3.02;;;;;;;3.04;69.40;148430.16;1743870;81;21133;-70
2022/02/14 09:35:57;;;;;;;9.80;3.00;;;;;;;3.04;69.33;148430.16;1742460;81;21118;-70
2022/02/14 09:38:28;;;;;;;10.43;3.20;;;;;;;3.04;69.54;148428.84;1747317;81;21067;-70
2022/02/14 09:40:54;;;;;;;8.53;3.45;;;;;;;3.05;69.33;148432.73;1742850;81;21135;-68
2022/02/14 09:43:22;;;;;;;6.65;2.72;;;;;;;3.04;69.06;148430.16;1743812;81;20937;-70
2022/02/14 09:45:50;;;;;;;6.20;3.10;;;;;;;3.01;69.09;148422.42;1745270;81;21146;-70
2022/02/14 09:48:20;;;;;;;9.45;3.65;;;;;;;3.00;69.06;148419.84;1745010;81;21478;-70
2022/02/14 09:50:45;;;;;;;13.85;3.67;;;;;;;3.00;69.13;148419.84;1741865;81;21149;-69
2022/02/14 09:53:14;;;;;;;7.58;3.40;;;;;;;3.00;69.16;148419.84;1743857;81;20971;-69
2022/02/14 09:55:43;;;;;;;9.85;3.37;;;;;;;2.99;68.94;148417.27;1746811;81;21110;-69
2022/02/14 09:58:10;;;;;;;8.35;3.45;;;;;;;2.96;68.86;148409.48;1745379;81;21669;-69
2022/02/14 10:00:38;;;;;;;6.67;3.02;;;;;;;2.91;68.99;148396.59;1744278;81;37517;-68
2022/02/14 10:03:18;;;;;;;7.30;3.33;;;;;;;2.85;69.08;148383.70;1741315;81;21497;-68
2022/02/14 10:05:53;;;;;;;8.78;3.02;;;;;;;2.83;69.28;148378.55;1740866;81;21544;-69
2022/02/14 10:08:35;;;;;;;9.55;3.37;;;;;;;2.80;69.26;148370.81;1745305;81;21106;-69
2022/02/14 10:11:14;;;;;;;7.72;3.60;;;;;;;2.80;69.35;148369.50;1746059;81;21124;-69
2022/02/14 10:13:43;;;;;;;10.25;3.50;;;;;;;2.82;69.85;148375.97;1746454;81;21517;-68
2022/02/14 10:16:13;;;;;;;9.80;3.50;;;;;;;2.84;69.83;148379.81;1744308;81;21074;-71
2022/02/14 10:18:41;;;;;;;10.60;3.02;;;;;;;2.86;69.90;148386.28;1742105;81;21542;-70
2022/02/14 10:21:27;;;;;;;10.15;3.20;;;;;;;2.89;69.79;148391.44;1738265;80;21706;-69
2022/02/14 10:24:13;;;;;;;10.00;3.30;;;;;;;2.86;69.45;148386.28;1739518;80;21529;-68
2022/02/14 10:26:49;;;;;;;10.63;3.25;;;;;;;2.85;69.69;148383.70;1732860;81;21130;-70
2022/02/14 10:31:50;;;;;;;6.83;3.27;;;;;;;2.83;70.21;148378.55;1736920;81;21091;-70
2022/02/14 10:34:19;;;;;;;8.85;2.92;;;;;;;2.78;70.67;148365.66;1735565;82;21032;-70
2022/02/14 10:36:48;;;;;;;5.70;2.98;;;;;;;2.78;70.98;148364.34;1732917;82;21085;-70
2022/02/14 10:39:22;;;;;;;8.08;2.80;;;;;;;2.83;70.77;148378.55;1732977;81;21564;-68
2022/02/14 10:42:03;;;;;;;10.38;3.20;;;;;;;2.84;70.55;148381.12;1737838;80;21048;-69
2022/02/14 10:47:38;;;;;;;9.28;3.35;;;;;;;2.80;70.69;148369.50;1736962;82;21086;-70
2022/02/14 10:50:12;;;;;;;6.62;2.77;;;;;;;2.76;70.17;148360.45;1736179;80;21125;-68
2022/02/14 10:52:44;;;;;;;7.90;2.92;;;;;;;2.70;70.24;148345.00;1735999;81;21067;-70
2022/02/14 10:55:19;;;;;;;6.78;2.70;;;;;;;2.67;70.17;148338.58;1734540;81;22427;-69
2022/02/14 10:57:48;;;;;;;5.30;2.60;;;;;;;2.66;70.29;148334.69;1740447;81;21509;-70
2022/02/14 11:00:20;;;;;;;6.80;2.87;;;;;;;2.68;70.64;148339.84;1684374;83;21139;-63
2022/02/14 11:02:58;;;;;;;8.30;3.30;;;;;;;2.68;70.89;148341.16;1691795;84;22843;-62
2022/02/14 11:05:27;;;;;;;4.95;2.62;;;;;;;2.67;70.63;148338.58;1740738;81;21076;-62
2022/02/14 11:07:55;;;;;;;5.55;2.47;;;;;;;2.65;70.11;148332.11;1737179;80;21040;-63
2022/02/14 11:10:22;;;;;;;7.03;2.80;;;;;;;2.61;70.03;148323.06;1732692;80;21092;-61
2022/02/14 11:12:57;;;;;;;7.12;2.72;;;;;;;2.58;70.06;148315.33;1733487;82;21064;-62
2022/02/14 11:15:28;;;;;;;5.22;2.47;;;;;;;2.56;70.27;148311.48;1733537;81;21762;-62
2022/02/14 11:18:06;;;;;;;6.75;2.62;;;;;;;2.57;70.68;148314.06;1733017;82;21067;-62
2022/02/14 11:20:32;;;;;;;4.55;2.37;;;;;;;2.61;70.72;148321.80;1732917;80;21123;-62
2022/02/14 11:23:01;;;;;;;6.60;2.85;;;;;;;2.62;70.22;148324.38;1739227;82;21063;-62
2022/02/14 11:25:36;;;;;;;6.47;3.05;;;;;;;2.59;70.38;148317.91;1735529;82;22265;-61
2022/02/14 11:28:23;;;;;;;7.55;2.80;;;;;;;2.62;70.65;148324.38;1736597;81;20964;-63
2022/02/14 11:31:11;;;;;;;9.43;2.45;;;;;;;2.62;71.19;148324.38;1730504;82;21056;-61